createdAt,value
2018-01-11T00:00:05.594Z,8.47
2018-01-11T00:02:33.177Z,8.70
2018-01-11T00:05:01.636Z,8.30
2018-01-11T00:07:29.363Z,7.63
2018-01-11T00:09:56.917Z,7.30
2018-01-11T00:12:25.235Z,9.60
2018-01-11T00:14:52.781Z,6.60
2018-01-11T00:17:20.366Z,8.00
2018-01-11T00:19:47.923Z,7.17
2018-01-11T00:22:15.543Z,7.70
2018-01-11T00:24:43.111Z,6.33
2018-01-11T00:27:11.044Z,7.40
2018-01-11T00:29:40.088Z,7.70
2018-01-11T00:32:08.086Z,6.80
2018-01-11T00:34:35.628Z,7.63
2018-01-11T00:37:03.182Z,7.90
2018-01-11T00:39:30.782Z,8.60
2018-01-11T00:41:58.320Z,8.83
2018-01-11T00:44:25.947Z,8.13
2018-01-11T00:46:53.510Z,8.57
2018-01-11T00:49:21.802Z,7.90
2018-01-11T00:51:49.374Z,8.30
2018-01-11T00:54:16.950Z,8.20
2018-01-11T00:56:44.693Z,7.40
2018-01-11T00:59:12.244Z,8.57
2018-01-11T01:01:39.807Z,8.33
2018-01-11T01:04:07.379Z,8.60
2018-01-11T01:06:34.931Z,7.43
2018-01-11T01:09:02.506Z,7.27
2018-01-11T01:11:30.043Z,7.93
2018-01-11T01:13:57.601Z,8.33
2018-01-11T01:16:25.192Z,6.93
2018-01-11T01:18:52.722Z,9.10
2018-01-11T01:21:20.471Z,9.23
2018-01-11T01:23:48.090Z,7.77
2018-01-11T01:26:15.655Z,8.17
2018-01-11T01:28:43.289Z,8.80
2018-01-11T01:31:10.868Z,8.40
2018-01-11T01:33:44.336Z,8.53
2018-01-11T01:36:18.743Z,7.90
2018-01-11T01:38:46.295Z,8.00
2018-01-11T01:41:15.727Z,8.27
2018-01-11T01:43:43.391Z,9.00
2018-01-11T01:46:10.951Z,8.60
2018-01-11T01:48:43.204Z,7.73
2018-01-11T01:51:10.791Z,8.60
2018-01-11T01:53:38.324Z,7.27
2018-01-11T01:56:05.881Z,7.70
2018-01-11T01:58:34.212Z,6.67
2018-01-11T02:01:01.745Z,7.40
2018-01-11T02:03:35.043Z,8.50
2018-01-11T02:06:02.605Z,7.10
2018-01-11T02:08:30.433Z,9.33
2018-01-11T02:10:57.983Z,7.67
2018-01-11T02:13:26.335Z,8.07
2018-01-11T02:15:53.892Z,8.30
2018-01-11T02:18:21.450Z,7.80
2018-01-11T02:20:49.027Z,8.70
2018-01-11T02:23:16.556Z,8.80
2018-01-11T02:25:44.087Z,8.43
2018-01-11T02:28:11.699Z,8.27
2018-01-11T02:30:39.243Z,7.83
2018-01-11T02:33:07.083Z,7.70
2018-01-11T02:35:34.773Z,8.40
2018-01-11T02:38:02.931Z,10.00
2018-01-11T02:40:30.473Z,7.70
2018-01-11T02:42:58.031Z,8.00
2018-01-11T02:45:25.572Z,8.27
2018-01-11T02:47:53.127Z,7.97
2018-01-11T02:50:20.716Z,8.70
2018-01-11T02:52:48.286Z,7.80
2018-01-11T02:55:16.505Z,7.83
2018-01-11T02:57:44.362Z,7.80
2018-01-11T03:00:11.923Z,7.43
2018-01-11T03:02:39.670Z,7.83
2018-01-11T03:05:15.506Z,8.90
2018-01-11T03:07:43.057Z,7.47
2018-01-11T03:10:10.606Z,8.00
2018-01-11T03:12:38.182Z,7.67
2018-01-11T03:15:05.716Z,8.10
2018-01-11T03:17:34.156Z,7.80
2018-01-11T03:20:01.734Z,8.03
2018-01-11T03:22:29.386Z,6.97
2018-01-11T03:24:56.937Z,7.77
2018-01-11T03:27:24.506Z,7.47
2018-01-11T03:29:52.049Z,7.47
2018-01-11T03:32:19.589Z,8.03
2018-01-11T03:34:47.190Z,7.83
2018-01-11T03:37:15.010Z,7.80
2018-01-11T03:39:42.802Z,6.87
2018-01-11T03:42:10.396Z,7.27
2018-01-11T03:44:38.128Z,8.13
2018-01-11T03:47:05.901Z,8.40
2018-01-11T03:49:33.484Z,8.77
2018-01-11T03:52:01.056Z,9.23
2018-01-11T03:54:28.586Z,9.67
2018-01-11T03:56:56.343Z,9.67
2018-01-11T03:59:24.103Z,8.13
2018-01-11T04:01:52.925Z,9.53
2018-01-11T04:04:20.636Z,11.73
2018-01-11T04:06:48.323Z,9.57
2018-01-11T04:09:15.895Z,11.03
2018-01-11T04:11:45.076Z,9.90
2018-01-11T04:14:12.865Z,9.67
2018-01-11T04:16:40.437Z,9.60
2018-01-11T04:19:09.702Z,9.63
2018-01-11T04:21:37.986Z,11.03
2018-01-11T04:24:06.570Z,8.87
2018-01-11T04:26:34.182Z,11.20
2018-01-11T04:29:01.997Z,11.27
2018-01-11T04:31:29.751Z,12.03
2018-01-11T04:33:57.517Z,10.83
2018-01-11T04:36:25.162Z,10.70
2018-01-11T04:38:52.831Z,10.10
2018-01-11T04:41:20.631Z,11.87
2018-01-11T04:43:49.020Z,11.20
2018-01-11T04:46:16.692Z,13.03
2018-01-11T04:48:44.741Z,11.50
2018-01-11T04:51:12.308Z,11.83
2018-01-11T04:53:39.903Z,10.63
2018-01-11T04:56:08.429Z,11.93
2018-01-11T04:58:36.121Z,11.57
2018-01-11T05:01:03.800Z,11.00
2018-01-11T05:03:32.940Z,12.63
2018-01-11T05:06:00.500Z,11.83
2018-01-11T05:08:28.078Z,11.97
2018-01-11T05:10:55.635Z,11.20
2018-01-11T05:13:23.181Z,11.80
2018-01-11T05:15:50.743Z,11.23
2018-01-11T05:18:18.358Z,10.33
2018-01-11T05:20:45.930Z,11.67
2018-01-11T05:23:13.490Z,11.90
2018-01-11T05:25:42.029Z,10.67
2018-01-11T05:28:09.610Z,10.50
2018-01-11T05:30:37.167Z,11.57
2018-01-11T05:33:04.746Z,10.27
2018-01-11T05:35:32.310Z,9.17
2018-01-11T05:37:59.859Z,9.83
2018-01-11T05:40:27.464Z,12.20
2018-01-11T05:42:56.487Z,10.00
2018-01-11T05:45:24.050Z,11.13
2018-01-11T05:47:52.616Z,9.10
2018-01-11T05:50:21.166Z,12.20
2018-01-11T05:52:49.625Z,10.87
2018-01-11T05:55:17.218Z,9.70
2018-01-11T05:57:45.595Z,10.13
2018-01-11T06:00:13.219Z,9.67
2018-01-11T06:02:40.799Z,9.33
2018-01-11T06:05:08.357Z,10.87
2018-01-11T06:07:35.929Z,10.10
2018-01-11T06:10:03.536Z,10.10
2018-01-11T06:12:31.070Z,12.23
2018-01-11T06:15:00.398Z,9.87
2018-01-11T06:17:28.871Z,9.80
2018-01-11T06:19:57.267Z,9.97
2018-01-11T06:22:24.815Z,9.17
2018-01-11T06:24:52.412Z,9.10
2018-01-11T06:27:19.969Z,9.17
2018-01-11T06:29:47.546Z,10.23
2018-01-11T06:32:15.902Z,10.73
2018-01-11T06:34:43.434Z,9.73
2018-01-11T06:37:11.122Z,9.80
2018-01-11T06:39:38.832Z,8.50
2018-01-11T06:42:07.252Z,7.57
2018-01-11T06:44:34.798Z,9.80
2018-01-11T06:47:03.185Z,10.80
2018-01-11T06:49:32.398Z,10.70
2018-01-11T06:52:00.347Z,8.63
2018-01-11T06:54:28.254Z,8.60
2018-01-11T06:56:55.791Z,8.57
2018-01-11T06:59:23.348Z,8.77
2018-01-11T07:01:50.934Z,8.47
2018-01-11T07:04:18.495Z,7.97
2018-01-11T07:06:46.050Z,7.90
2018-01-11T07:09:13.619Z,8.77
2018-01-11T07:11:41.156Z,8.30
2018-01-11T07:14:08.699Z,9.10
2018-01-11T07:16:36.278Z,9.17
2018-01-11T07:19:03.847Z,8.40
2018-01-11T07:21:31.470Z,7.73
2018-01-11T07:23:59.061Z,10.13
2018-01-11T07:26:26.626Z,8.53
2018-01-11T07:28:54.473Z,10.63
2018-01-11T07:31:22.060Z,9.40
2018-01-11T07:33:49.602Z,9.30
2018-01-11T07:36:17.154Z,10.10
2018-01-11T07:38:44.721Z,10.60
2018-01-11T07:41:12.255Z,9.40
2018-01-11T07:43:39.919Z,7.70
2018-01-11T07:46:08.091Z,9.77
2018-01-11T07:48:36.409Z,8.07
2018-01-11T07:51:04.785Z,8.80
2018-01-11T07:53:32.610Z,8.33
2018-01-11T07:56:00.183Z,7.30
2018-01-11T07:58:28.455Z,8.73
2018-01-11T08:00:56.811Z,6.40
2018-01-11T08:03:24.353Z,7.30
2018-01-11T08:05:51.969Z,7.60
2018-01-11T08:08:19.673Z,7.67
2018-01-11T08:10:47.207Z,7.50
2018-01-11T08:13:14.774Z,10.97
2018-01-11T08:15:42.335Z,6.90
2018-01-11T08:18:10.076Z,8.70
2018-01-11T08:20:37.611Z,8.97
2018-01-11T08:23:05.948Z,8.53
2018-01-11T08:25:33.489Z,8.37
2018-01-11T08:28:01.140Z,8.23
2018-01-11T08:30:28.751Z,8.67
2018-01-11T08:32:56.339Z,9.47
2018-01-11T08:35:24.657Z,7.17
2018-01-11T08:37:52.238Z,7.60
2018-01-11T08:40:19.768Z,8.73
2018-01-11T08:42:47.503Z,9.77
2018-01-11T08:45:15.283Z,9.63
2018-01-11T08:47:42.834Z,10.73
2018-01-11T08:50:11.212Z,9.30
2018-01-11T08:52:38.805Z,9.80
2018-01-11T08:55:06.336Z,11.10
2018-01-11T08:57:33.883Z,9.57
2018-01-11T09:00:02.228Z,10.23
2018-01-11T09:02:29.789Z,10.27
2018-01-11T09:04:57.352Z,10.60
2018-01-11T09:07:25.107Z,11.13
2018-01-11T09:09:52.654Z,10.53
2018-01-11T09:12:20.978Z,10.33
2018-01-11T09:14:48.568Z,11.20
2018-01-11T09:17:17.146Z,10.60
2018-01-11T09:19:44.679Z,9.80
2018-01-11T09:22:12.281Z,10.23
2018-01-11T09:24:39.820Z,11.30
2018-01-11T09:27:08.116Z,10.03
2018-01-11T09:29:39.740Z,9.63
2018-01-11T09:32:08.356Z,11.03
2018-01-11T09:34:36.011Z,8.33
2018-01-11T09:37:03.598Z,10.83
2018-01-11T09:39:31.138Z,9.50
2018-01-11T09:41:58.679Z,11.03
2018-01-11T09:44:28.062Z,9.30
2018-01-11T09:46:55.811Z,10.97
2018-01-11T09:49:23.370Z,10.90
2018-01-11T09:51:51.071Z,9.60
2018-01-11T09:54:19.377Z,10.10
2018-01-11T09:56:47.182Z,11.20
2018-01-11T09:59:14.747Z,10.17
2018-01-11T10:01:42.302Z,9.87
2018-01-11T10:04:09.856Z,8.47
2018-01-11T10:06:37.416Z,10.10
2018-01-11T10:09:05.238Z,9.60
2018-01-11T10:11:32.792Z,10.43
2018-01-11T10:14:01.126Z,10.17
2018-01-11T10:16:29.601Z,10.50
2018-01-11T10:18:57.157Z,10.23
2018-01-11T10:21:26.022Z,10.40
2018-01-11T10:23:54.566Z,9.30
2018-01-11T10:26:22.100Z,9.27
2018-01-11T10:28:49.681Z,8.77
2018-01-11T10:31:17.259Z,10.33
2018-01-11T10:33:44.818Z,9.43
2018-01-11T10:36:13.172Z,9.27
2018-01-11T10:38:40.739Z,9.30
2018-01-11T10:41:08.337Z,10.60
2018-01-11T10:43:35.910Z,10.80
2018-01-11T10:46:03.657Z,9.87
2018-01-11T10:48:31.352Z,10.80
2018-01-11T10:50:58.923Z,11.07
2018-01-11T10:53:26.478Z,10.77
2018-01-11T10:55:54.414Z,9.83
2018-01-11T10:58:22.001Z,8.83
2018-01-11T11:00:55.152Z,11.00
2018-01-11T11:03:22.692Z,9.33
2018-01-11T11:05:50.297Z,9.50
2018-01-11T11:08:17.856Z,10.67
2018-01-11T11:10:45.670Z,10.40
2018-01-11T11:13:13.286Z,10.07
2018-01-11T11:15:40.823Z,10.83
2018-01-11T11:18:08.377Z,10.27
2018-01-11T11:20:37.551Z,10.20
2018-01-11T11:23:06.595Z,9.50
2018-01-11T11:25:34.159Z,10.83
2018-01-11T11:28:01.736Z,12.03
2018-01-11T11:30:29.319Z,11.93
2018-01-11T11:32:56.858Z,10.70
2018-01-11T11:35:24.619Z,10.40
2018-01-11T11:37:52.181Z,10.80
2018-01-11T11:40:19.717Z,11.83
2018-01-11T11:42:47.276Z,11.20
2018-01-11T11:45:14.838Z,10.03
2018-01-11T11:47:42.695Z,12.23
2018-01-11T11:50:10.391Z,11.10
2018-01-11T11:52:37.929Z,11.30
2018-01-11T11:55:05.483Z,10.73
2018-01-11T11:57:33.076Z,11.73
2018-01-11T12:00:00.835Z,11.40
2018-01-11T12:02:28.387Z,9.63
2018-01-11T12:04:56.800Z,10.63
2018-01-11T12:07:24.343Z,13.50
2018-01-11T12:09:51.908Z,10.43
2018-01-11T12:12:19.476Z,11.23
2018-01-11T12:14:47.022Z,10.93
2018-01-11T12:17:15.222Z,12.70
2018-01-11T12:19:42.779Z,11.40
2018-01-11T12:22:10.342Z,12.17
2018-01-11T12:24:38.156Z,9.73
2018-01-11T12:27:05.746Z,11.77
2018-01-11T12:29:33.284Z,11.83
2018-01-11T12:32:00.936Z,9.67
2018-01-11T12:34:28.522Z,11.10
2018-01-11T12:36:56.078Z,11.83
2018-01-11T12:39:23.611Z,10.10
2018-01-11T12:41:51.951Z,11.23
2018-01-11T12:44:19.498Z,10.97
2018-01-11T12:46:47.938Z,8.40
2018-01-11T12:49:15.863Z,9.73
2018-01-11T12:51:44.508Z,12.13
2018-01-11T12:54:12.148Z,11.37
2018-01-11T12:56:40.482Z,12.73
2018-01-11T12:59:08.021Z,10.43
2018-01-11T13:01:35.582Z,10.10
2018-01-11T13:04:03.666Z,11.20
2018-01-11T13:06:31.200Z,10.80
2018-01-11T13:08:58.753Z,11.00
2018-01-11T13:11:26.352Z,10.77
2018-01-11T13:13:54.116Z,9.90
2018-01-11T13:16:21.671Z,11.20
2018-01-11T13:18:49.258Z,10.90
2018-01-11T13:21:16.824Z,10.60
2018-01-11T13:23:44.380Z,10.13
2018-01-11T13:26:11.975Z,11.07
2018-01-11T13:28:39.513Z,11.60
2018-01-11T13:31:07.058Z,11.30
2018-01-11T13:33:34.626Z,11.50
2018-01-11T13:36:02.163Z,11.00
2018-01-11T13:38:29.710Z,11.03
2018-01-11T13:40:57.281Z,10.50
2018-01-11T13:43:24.826Z,10.63
2018-01-11T13:45:52.369Z,9.30
2018-01-11T13:48:19.950Z,10.70
2018-01-11T13:50:47.524Z,11.27
2018-01-11T13:53:15.251Z,10.70
2018-01-11T13:55:42.854Z,10.60
2018-01-11T13:58:10.391Z,10.33
2018-01-11T14:00:38.706Z,10.90
2018-01-11T14:03:06.340Z,11.40
2018-01-11T14:05:33.880Z,11.73
2018-01-11T14:08:01.420Z,11.20
2018-01-11T14:10:29.027Z,13.50
2018-01-11T14:12:56.574Z,11.50
2018-01-11T14:15:24.100Z,9.93
2018-01-11T14:17:52.460Z,15.20
2018-01-11T14:20:21.496Z,13.13
2018-01-11T14:22:49.386Z,12.97
2018-01-11T14:25:16.975Z,11.23
2018-01-11T14:27:44.586Z,11.00
2018-01-11T14:30:12.137Z,12.87
2018-01-11T14:32:39.704Z,12.63
2018-01-11T14:35:07.285Z,11.90
2018-01-11T14:37:34.833Z,10.63
2018-01-11T14:40:03.183Z,11.07
2018-01-11T14:42:31.479Z,11.07
2018-01-11T14:44:59.740Z,12.57
2018-01-11T14:47:27.320Z,10.83
2018-01-11T14:49:55.647Z,12.13
2018-01-11T14:52:23.245Z,14.00
2018-01-11T14:54:51.136Z,11.33
2018-01-11T14:57:18.672Z,10.30
2018-01-11T14:59:46.972Z,13.30
2018-01-11T15:02:14.542Z,13.37
2018-01-11T15:04:42.096Z,14.30
2018-01-11T15:07:09.662Z,11.60
2018-01-11T15:09:37.275Z,10.90
2018-01-11T15:12:05.587Z,11.50
2018-01-11T15:14:33.907Z,14.37
2018-01-11T15:17:02.670Z,11.30
2018-01-11T15:19:30.208Z,12.33
2018-01-11T15:21:57.762Z,10.77
2018-01-11T15:24:25.350Z,13.90
2018-01-11T15:26:52.903Z,11.10
2018-01-11T15:29:20.447Z,12.00
2018-01-11T15:31:48.843Z,10.50
2018-01-11T15:34:16.379Z,10.50
2018-01-11T15:36:43.936Z,10.70
2018-01-11T15:39:15.381Z,11.30
2018-01-11T15:41:43.775Z,12.03
2018-01-11T15:44:12.173Z,10.70
2018-01-11T15:46:39.784Z,10.57
2018-01-11T15:49:08.310Z,11.30
2018-01-11T15:51:35.889Z,11.73
2018-01-11T15:54:03.546Z,11.00
2018-01-11T15:56:31.398Z,12.13
2018-01-11T15:58:59.118Z,10.83
2018-01-11T16:01:27.558Z,11.43
2018-01-11T16:03:55.090Z,12.00
2018-01-11T16:06:23.679Z,11.23
2018-01-11T16:08:51.368Z,12.17
2018-01-11T16:11:19.013Z,11.00
2018-01-11T16:13:46.573Z,12.50
2018-01-11T16:16:14.970Z,10.50
2018-01-11T16:18:42.509Z,11.27
2018-01-11T16:21:10.818Z,11.00
2018-01-11T16:23:38.573Z,12.43
2018-01-11T16:26:06.133Z,10.90
2018-01-11T16:28:33.803Z,11.93
2018-01-11T16:31:01.569Z,10.80
2018-01-11T16:33:29.223Z,10.40
2018-01-11T16:35:57.374Z,12.17
2018-01-11T16:38:25.161Z,11.83
2018-01-11T16:40:53.465Z,11.70
2018-01-11T16:43:21.292Z,12.53
2018-01-11T16:45:49.096Z,13.37
2018-01-11T16:48:16.632Z,12.70
2018-01-11T16:50:44.798Z,12.07
2018-01-11T16:53:12.378Z,10.83
2018-01-11T16:55:40.271Z,10.27
2018-01-11T16:58:08.946Z,10.67
2018-01-11T17:00:36.550Z,10.50
2018-01-11T17:03:04.090Z,10.77
2018-01-11T17:05:31.650Z,17.10
2018-01-11T17:07:59.236Z,13.60
2018-01-11T17:10:26.792Z,17.33
2018-01-11T17:12:55.120Z,14.83
2018-01-11T17:15:22.904Z,15.23
2018-01-11T17:17:50.505Z,15.30
2018-01-11T17:20:18.287Z,15.80
2018-01-11T17:22:45.882Z,14.83
2018-01-11T17:25:13.413Z,15.73
2018-01-11T17:27:40.958Z,15.13
2018-01-11T17:30:08.507Z,14.53
2018-01-11T17:32:36.104Z,14.80
2018-01-11T17:35:03.638Z,14.23
2018-01-11T17:37:31.348Z,15.30
2018-01-11T17:39:58.919Z,15.40
2018-01-11T17:42:26.459Z,15.53
2018-01-11T17:44:54.047Z,15.93
2018-01-11T17:47:21.592Z,13.57
2018-01-11T17:49:49.138Z,14.03
2018-01-11T17:52:16.730Z,14.80
2018-01-11T17:54:44.282Z,17.63
2018-01-11T17:57:11.826Z,19.60
2018-01-11T17:59:39.731Z,17.30
2018-01-11T18:02:08.054Z,14.97
2018-01-11T18:04:35.622Z,16.80
2018-01-11T18:07:03.284Z,16.43
2018-01-11T18:09:30.906Z,15.23
2018-01-11T18:11:59.232Z,17.53
2018-01-11T18:14:28.506Z,19.63
2018-01-11T18:16:56.211Z,27.20
2018-01-11T18:19:23.948Z,22.30
2018-01-11T18:21:51.707Z,16.93
2018-01-11T18:24:20.017Z,16.47
2018-01-11T18:26:47.582Z,15.70
2018-01-11T18:29:15.240Z,14.83
2018-01-11T18:31:42.802Z,17.30
2018-01-11T18:34:10.387Z,15.83
2018-01-11T18:36:39.258Z,17.33
2018-01-11T18:39:06.972Z,16.57
2018-01-11T18:41:34.516Z,17.70
2018-01-11T18:44:03.811Z,16.77
2018-01-11T18:46:32.147Z,18.10
2018-01-11T18:48:59.718Z,16.90
2018-01-11T18:51:27.704Z,17.20
2018-01-11T18:53:56.092Z,15.57
2018-01-11T18:56:24.506Z,14.83
2018-01-11T18:58:52.316Z,17.47
2018-01-11T19:01:20.187Z,17.60
2018-01-11T19:03:47.740Z,15.10
2018-01-11T19:06:15.350Z,15.90
2018-01-11T19:08:44.194Z,14.60
2018-01-11T19:11:13.539Z,17.13
2018-01-11T19:13:41.920Z,14.23
2018-01-11T19:16:09.504Z,16.30
2018-01-11T19:18:37.043Z,14.97
2018-01-11T19:21:04.642Z,16.00
2018-01-11T19:23:32.583Z,15.33
2018-01-11T19:26:00.884Z,16.07
2018-01-11T19:28:28.488Z,17.33
2018-01-11T19:30:56.826Z,16.30
2018-01-11T19:33:24.405Z,17.33
2018-01-11T19:35:52.031Z,16.23
2018-01-11T19:38:19.582Z,16.80
2018-01-11T19:40:47.879Z,16.50
2018-01-11T19:43:15.473Z,15.77
2018-01-11T19:45:43.039Z,14.97
2018-01-11T19:48:10.775Z,15.20
2018-01-11T19:50:38.360Z,16.50
2018-01-11T19:53:05.962Z,16.90
2018-01-11T19:55:33.551Z,16.77
2018-01-11T19:58:01.147Z,15.93
2018-01-11T20:00:28.764Z,16.63
2018-01-11T20:02:57.660Z,17.60
2018-01-11T20:05:25.272Z,15.03
2018-01-11T20:07:54.427Z,17.27
2018-01-11T20:10:22.048Z,18.03
2018-01-11T20:12:52.074Z,18.80
2018-01-11T20:15:20.175Z,17.67
2018-01-11T20:17:47.735Z,18.87
2018-01-11T20:20:15.489Z,17.50
2018-01-11T20:22:43.137Z,17.63
2018-01-11T20:25:10.973Z,18.30
2018-01-11T20:27:39.323Z,17.80
2018-01-11T20:30:07.501Z,17.23
2018-01-11T20:32:35.941Z,18.03
2018-01-11T20:35:05.729Z,17.77
2018-01-11T20:37:34.738Z,18.70
2018-01-11T20:40:03.777Z,20.40
2018-01-11T20:42:31.433Z,18.00
2018-01-11T20:44:59.681Z,21.87
2018-01-11T20:47:27.572Z,20.00
2018-01-11T20:49:55.460Z,19.17
2018-01-11T20:52:23.313Z,22.37
2018-01-11T20:54:51.175Z,18.77
2018-01-11T20:57:18.872Z,18.63
2018-01-11T20:59:46.634Z,18.90
2018-01-11T21:02:15.069Z,16.40
2018-01-11T21:04:42.877Z,16.20
2018-01-11T21:07:10.444Z,18.30
2018-01-11T21:09:37.998Z,19.00
2018-01-11T21:12:05.600Z,20.00
2018-01-11T21:14:33.910Z,19.93
2018-01-11T21:17:02.072Z,18.97
2018-01-11T21:19:30.111Z,17.10
2018-01-11T21:21:57.675Z,21.30
2018-01-11T21:24:25.976Z,17.70
2018-01-11T21:26:54.271Z,20.07
2018-01-11T21:29:22.344Z,18.83
2018-01-11T21:31:49.885Z,16.90
2018-01-11T21:34:17.482Z,16.57
2018-01-11T21:36:45.022Z,18.10
2018-01-11T21:39:13.538Z,17.90
2018-01-11T21:41:41.130Z,16.70
2018-01-11T21:44:09.019Z,16.53
2018-01-11T21:46:36.575Z,18.87
2018-01-11T21:49:04.148Z,14.80
2018-01-11T21:51:31.827Z,15.30
2018-01-11T21:53:59.377Z,13.80
2018-01-11T21:56:26.948Z,13.80
2018-01-11T21:58:54.484Z,14.90
2018-01-11T22:01:22.045Z,13.20
2018-01-11T22:03:49.627Z,13.77
2018-01-11T22:06:17.352Z,13.63
2018-01-11T22:08:44.925Z,14.20
2018-01-11T22:11:12.478Z,13.40
2018-01-11T22:13:40.810Z,12.40
2018-01-11T22:16:08.638Z,11.83
2018-01-11T22:18:36.228Z,13.70
2018-01-11T22:21:03.764Z,13.70
2018-01-11T22:23:31.404Z,12.00
2018-01-11T22:25:58.999Z,14.53
2018-01-11T22:28:26.532Z,11.60
2018-01-11T22:30:54.369Z,11.60
2018-01-11T22:33:21.939Z,12.67
2018-01-11T22:35:50.248Z,12.73
2018-01-11T22:38:18.644Z,13.00
2018-01-11T22:40:46.525Z,13.63
2018-01-11T22:43:14.868Z,13.83
2018-01-11T22:45:42.416Z,12.23
2018-01-11T22:48:10.007Z,13.87
2018-01-11T22:50:37.554Z,16.70
2018-01-11T22:53:05.098Z,14.03
2018-01-11T22:55:33.027Z,13.37
2018-01-11T22:58:00.571Z,13.87
2018-01-11T23:00:28.103Z,12.50
2018-01-11T23:02:55.679Z,13.07
2018-01-11T23:05:24.173Z,13.73
2018-01-11T23:07:52.907Z,13.10
2018-01-11T23:10:21.242Z,14.20
2018-01-11T23:12:48.800Z,13.97
2018-01-11T23:15:16.346Z,14.07
2018-01-11T23:17:44.338Z,13.73
2018-01-11T23:20:11.907Z,12.40
2018-01-11T23:22:39.543Z,12.93
2018-01-11T23:25:07.120Z,13.53
2018-01-11T23:27:34.883Z,13.47
2018-01-11T23:30:02.622Z,12.67
2018-01-11T23:32:30.669Z,13.30
2018-01-11T23:34:59.177Z,12.70
2018-01-11T23:37:26.839Z,12.77
2018-01-11T23:39:54.470Z,12.77
2018-01-11T23:42:22.044Z,13.00
2018-01-11T23:44:49.595Z,14.07
2018-01-11T23:47:17.982Z,14.73
2018-01-11T23:49:45.839Z,12.00
2018-01-11T23:52:13.431Z,10.97
2018-01-11T23:54:41.332Z,10.63
2018-01-11T23:57:10.518Z,10.37
2018-01-11T23:59:38.097Z,12.17
